Portada
METAR-TAF:

METAR-TAF

Aeroports :

Huatulco, Mèxic

latitud: 15-47N, longitud: 096-16W, altitud: 143 m

Observació

L'informe es va fer fa 25 minuts, a les 13:01 UTC
Vent calma
Temperatura 24°C
Humitat 54%
Pressió 1012 hPa
Visibilitat: 11.3 km
Cel clar

METAR: MMBT 181301Z RTD 00000KT 7SM SKC 24/14 A2987 RMK RTS

Hora: 07:26 (13:26 UTC)

Pronòstic

L'informe es va fer fa 9 hores i 10 minuts, a les 04:16 UTC
Pronòstic vàlid del 18 a les 06 UTC al 19 a les 06 UTC
Vent kt del Nord
Visibilitat: 10 km
Núvols disperses a una alçada de 8000 ft
A partir de les 18 a les 1800 UTC
Vent 10 kt del Sud
Visibilitat: 10 km
Núvols disperses a una alçada de 3000 ft
Cel ennuvolat a una alçada de 10000 ft
A partir de les 19 a les 0500 UTC
Vent kt del Nord
Visibilitat: 10 km
Núvols disperses a una alçada de 10000 ft

TAF: MMBT 180416Z 1806/1906 00000KT P6SM SCT080 FM181800 18010KT P6SM SCT030 BKN100 FM190500 00000KT P6SM SCT100

Observacions i pronòstics meteorològics de més de 4000 aeroports (METAR i TAF).

Les estacions disponibles són els punts grocs i vermells al mapa.

Posi el ratolí al punt desitjat per veure el nom de l'estació.

Feu clic per veure les observacions i els pronòstics meteorològics.

Per canviar el mapa: feu clic els botons verds amb una creu de color negre per apropar; al botó verd amb un guió per allunyar la imatge; o en les fletxes verdes per a mapes adjacents.


METAR-TAF: